createdAt,value
2022-12-24T00:00:31.532Z,98646.19
2022-12-24T00:03:34.677Z,98625.56
2022-12-24T00:06:37.010Z,98611.50
2022-12-24T00:09:39.228Z,98600.00
2022-12-24T00:12:41.429Z,98587.72
2022-12-24T00:15:43.667Z,98580.56
2022-12-24T00:18:47.073Z,98594.19
2022-12-24T00:21:49.495Z,98591.66
2022-12-24T00:24:51.677Z,98585.22
2022-12-24T00:27:53.920Z,98592.28
2022-12-24T00:30:56.235Z,98599.00
2022-12-24T00:33:58.465Z,98602.34
2022-12-24T00:37:00.700Z,98615.94
2022-12-24T00:40:03.480Z,98614.19
2022-12-24T00:43:05.685Z,98607.34
2022-12-24T00:46:07.909Z,98603.84
2022-12-24T00:49:11.278Z,98599.59
2022-12-24T00:52:13.598Z,98597.69
2022-12-24T00:55:15.835Z,98618.94
2022-12-24T00:58:17.993Z,98619.75
2022-12-24T01:01:22.944Z,98621.91
2022-12-24T01:04:43.958Z,98637.31
2022-12-24T01:07:48.331Z,98625.44
2022-12-24T01:10:50.528Z,98626.97
2022-12-24T01:13:52.673Z,98609.78
2022-12-24T01:16:54.887Z,98590.72
2022-12-24T01:19:57.404Z,98576.66
2022-12-24T01:23:00.364Z,98581.63
2022-12-24T01:26:04.288Z,98567.84
2022-12-24T01:29:06.515Z,98570.41
2022-12-24T01:32:08.787Z,98573.63
2022-12-24T01:35:11.297Z,98571.00
2022-12-24T01:38:13.836Z,98543.84
2022-12-24T01:41:40.272Z,98562.78
2022-12-24T01:44:48.770Z,98555.91
2022-12-24T01:47:50.907Z,98553.59
2022-12-24T01:51:01.748Z,98541.69
2022-12-24T01:54:07.439Z,98527.97
2022-12-24T01:57:21.829Z,98525.13
2022-12-24T02:00:24.203Z,98527.19
2022-12-24T02:03:26.615Z,98534.28
2022-12-24T02:06:28.883Z,98533.47
2022-12-24T02:09:31.285Z,98523.50
2022-12-24T02:12:35.285Z,98529.16
2022-12-24T02:15:55.017Z,98540.00
2022-12-24T02:19:09.524Z,98558.41
2022-12-24T02:22:16.968Z,98561.56
2022-12-24T02:25:41.006Z,98571.34
2022-12-24T02:29:04.799Z,98565.28
2022-12-24T02:32:19.246Z,98559.06
2022-12-24T02:35:51.531Z,98576.69
2022-12-24T02:39:06.094Z,98566.47
2022-12-24T02:42:09.711Z,98590.00
2022-12-24T02:45:15.906Z,98588.94
2022-12-24T02:48:18.690Z,98592.56
2022-12-24T02:51:24.876Z,98590.03
2022-12-24T02:54:27.510Z,98593.63
2022-12-24T02:57:38.917Z,98593.19
2022-12-24T03:00:56.423Z,98587.78
2022-12-24T03:04:08.251Z,98591.09
2022-12-24T03:07:36.704Z,98581.13
2022-12-24T03:10:52.700Z,98577.66
2022-12-24T03:13:55.856Z,98560.63
2022-12-24T03:16:58.608Z,98557.03
2022-12-24T03:20:00.838Z,98563.59
2022-12-24T03:23:04.047Z,98565.75
2022-12-24T03:26:08.592Z,98562.31
2022-12-24T03:29:10.903Z,98550.75
2022-12-24T03:32:13.102Z,98553.06
2022-12-24T03:35:15.681Z,98558.31
2022-12-24T03:38:17.855Z,98548.31
2022-12-24T03:41:19.983Z,98548.44
2022-12-24T03:44:22.123Z,98562.81
2022-12-24T03:47:24.339Z,98563.06
2022-12-24T03:50:26.507Z,98569.16
2022-12-24T03:53:28.728Z,98580.56
2022-12-24T03:56:30.897Z,98580.38
2022-12-24T03:59:33.083Z,98591.91
2022-12-24T04:02:35.394Z,98594.97
2022-12-24T04:05:37.640Z,98604.06
2022-12-24T04:08:40.429Z,98602.88
2022-12-24T04:11:42.633Z,98593.59
2022-12-24T04:14:44.830Z,98598.13
2022-12-24T04:17:47.001Z,98585.75
2022-12-24T04:20:49.202Z,98595.03
2022-12-24T04:23:51.370Z,98591.09
2022-12-24T04:26:53.583Z,98607.22
2022-12-24T04:29:55.759Z,98600.13
2022-12-24T04:32:57.986Z,98602.12
2022-12-24T04:36:01.599Z,98604.97
2022-12-24T04:39:03.864Z,98617.31
2022-12-24T04:42:06.134Z,98606.09
2022-12-24T04:45:08.989Z,98588.66
2022-12-24T04:48:11.201Z,98601.00
2022-12-24T04:51:14.032Z,98589.38
2022-12-24T04:54:16.211Z,98596.72
2022-12-24T04:57:18.444Z,98595.97
2022-12-24T05:00:20.793Z,98611.03
2022-12-24T05:03:23.024Z,98613.97
2022-12-24T05:06:29.673Z,98609.53
2022-12-24T05:09:31.991Z,98610.62
2022-12-24T05:12:34.152Z,98610.31
2022-12-24T05:15:36.314Z,98608.78
2022-12-24T05:18:39.097Z,98623.25
2022-12-24T05:21:41.292Z,98622.28
2022-12-24T05:25:02.120Z,98618.06
2022-12-24T05:28:04.432Z,98619.91
2022-12-24T05:31:06.644Z,98625.78
2022-12-24T05:34:09.185Z,98625.78
2022-12-24T05:37:11.371Z,98619.38
2022-12-24T05:40:13.513Z,98622.37
2022-12-24T05:43:15.696Z,98628.44
2022-12-24T05:46:20.307Z,98628.28
2022-12-24T05:49:22.474Z,98627.47
2022-12-24T05:52:24.704Z,98630.81
2022-12-24T05:55:26.863Z,98626.34
2022-12-24T05:58:29.038Z,98621.94
2022-12-24T06:01:31.256Z,98627.09
2022-12-24T06:04:33.522Z,98632.75
2022-12-24T06:07:35.723Z,98635.63
2022-12-24T06:10:37.876Z,98636.50
2022-12-24T06:13:40.857Z,98641.25
2022-12-24T06:16:43.045Z,98641.91
2022-12-24T06:19:45.230Z,98634.63
2022-12-24T06:22:47.443Z,98638.34
2022-12-24T06:25:50.078Z,98639.38
2022-12-24T06:28:52.399Z,98644.81
2022-12-24T06:31:54.650Z,98650.44
2022-12-24T06:34:56.985Z,98658.91
2022-12-24T06:37:59.827Z,98654.44
2022-12-24T06:41:06.512Z,98662.16
2022-12-24T06:44:08.934Z,98661.97
2022-12-24T06:47:11.155Z,98676.78
2022-12-24T06:50:13.395Z,98675.66
2022-12-24T06:53:15.606Z,98685.56
2022-12-24T06:56:18.474Z,98696.47
2022-12-24T06:59:20.659Z,98686.19
2022-12-24T07:02:23.063Z,98700.91
2022-12-24T07:05:25.373Z,98698.41
2022-12-24T07:08:27.960Z,98707.94
2022-12-24T07:11:30.185Z,98712.63
2022-12-24T07:14:32.539Z,98713.03
2022-12-24T07:17:34.867Z,98729.28
2022-12-24T07:20:37.148Z,98726.66
2022-12-24T07:23:39.607Z,98721.78
2022-12-24T07:26:41.871Z,98723.00
2022-12-24T07:29:44.107Z,98716.94
2022-12-24T07:32:46.338Z,98718.19
2022-12-24T07:35:53.928Z,98728.31
2022-12-24T07:38:58.067Z,98708.41
2022-12-24T07:42:00.294Z,98733.63
2022-12-24T07:45:02.489Z,98730.56
2022-12-24T07:48:05.133Z,98732.06
2022-12-24T07:51:07.567Z,98743.47
2022-12-24T07:54:09.829Z,98748.97
2022-12-24T07:57:12.021Z,98747.19
2022-12-24T08:00:14.523Z,98767.91
2022-12-24T08:03:22.638Z,98767.50
2022-12-24T08:06:24.943Z,98768.81
2022-12-24T08:09:27.094Z,98771.78
2022-12-24T08:12:29.252Z,98768.75
2022-12-24T08:15:31.605Z,98776.28
2022-12-24T08:18:33.849Z,98778.56
2022-12-24T08:21:36.013Z,98786.28
2022-12-24T08:24:38.256Z,98802.28
2022-12-24T08:27:40.472Z,98806.41
2022-12-24T08:30:43.036Z,98816.41
2022-12-24T08:33:45.253Z,98829.28
2022-12-24T08:36:47.428Z,98845.13
2022-12-24T08:39:49.607Z,98850.06
2022-12-24T08:42:51.805Z,98849.69
2022-12-24T08:45:54.168Z,98861.09
2022-12-24T08:48:56.393Z,98864.19
2022-12-24T08:51:58.587Z,98864.28
2022-12-24T08:55:00.833Z,98871.50
2022-12-24T08:58:03.418Z,98875.22
2022-12-24T09:01:17.630Z,98878.53
2022-12-24T09:04:20.306Z,98878.56
2022-12-24T09:07:22.452Z,98870.44
2022-12-24T09:10:24.844Z,98871.84
2022-12-24T09:13:27.013Z,98880.63
2022-12-24T09:16:29.323Z,98875.94
2022-12-24T09:19:31.648Z,98883.06
2022-12-24T09:22:38.326Z,98891.03
2022-12-24T09:25:44.124Z,98907.34
2022-12-24T09:28:46.335Z,98908.97
2022-12-24T09:31:48.526Z,98911.22
2022-12-24T09:34:50.729Z,98908.97
2022-12-24T09:38:02.986Z,98912.19
2022-12-24T09:41:43.645Z,98914.88
2022-12-24T09:44:46.979Z,98916.50
2022-12-24T09:47:53.121Z,98916.69
2022-12-24T09:51:25.111Z,98913.25
2022-12-24T09:54:31.419Z,98917.94
2022-12-24T09:57:37.279Z,98913.44
2022-12-24T10:00:43.176Z,98914.03
2022-12-24T10:03:48.420Z,98922.81
2022-12-24T10:06:57.522Z,98920.31
2022-12-24T10:10:25.070Z,98928.69
2022-12-24T10:13:38.155Z,98926.25
2022-12-24T10:17:02.259Z,98933.37
2022-12-24T10:20:45.698Z,98933.56
2022-12-24T10:23:55.292Z,98928.66
2022-12-24T10:27:01.509Z,98926.41
2022-12-24T10:30:17.566Z,98928.03
2022-12-24T10:33:26.869Z,98928.44
2022-12-24T10:36:30.431Z,98931.09
2022-12-24T10:39:32.809Z,98932.91
2022-12-24T10:42:51.012Z,98940.69
2022-12-24T10:45:57.230Z,98941.87
2022-12-24T10:49:02.323Z,98940.25
2022-12-24T10:52:13.175Z,98940.87
2022-12-24T10:55:18.297Z,98940.19
2022-12-24T10:58:20.508Z,98941.41
2022-12-24T11:01:43.801Z,98937.53
2022-12-24T11:04:47.897Z,98934.84
2022-12-24T11:08:02.425Z,98944.66
2022-12-24T11:11:07.710Z,98943.81
2022-12-24T11:14:15.239Z,98948.09
2022-12-24T11:17:23.729Z,98946.88
2022-12-24T11:20:29.767Z,98954.59
2022-12-24T11:23:32.220Z,98943.53
2022-12-24T11:26:34.676Z,98961.06
2022-12-24T11:29:36.877Z,98972.09
2022-12-24T11:32:39.089Z,98979.19
2022-12-24T11:35:46.896Z,98977.78
2022-12-24T11:38:57.213Z,98977.34
2022-12-24T11:41:59.416Z,98982.00
2022-12-24T11:45:04.883Z,98983.66
2022-12-24T11:48:31.803Z,98988.97
2022-12-24T11:51:34.388Z,98992.66
2022-12-24T11:55:08.890Z,98993.19
2022-12-24T11:58:23.294Z,99004.53
2022-12-24T12:01:30.535Z,98998.41
2022-12-24T12:04:35.501Z,99000.47
2022-12-24T12:07:38.493Z,98995.09
2022-12-24T12:10:41.673Z,99009.41
2022-12-24T12:13:44.322Z,99002.41
2022-12-24T12:17:01.611Z,99004.47
2022-12-24T12:20:12.607Z,99008.16
2022-12-24T12:23:15.637Z,99021.66
2022-12-24T12:26:29.263Z,99031.31
2022-12-24T12:29:44.292Z,99030.59
2022-12-24T12:33:30.529Z,99030.03
2022-12-24T12:36:53.871Z,99032.72
2022-12-24T12:39:56.073Z,99035.56
2022-12-24T12:43:27.378Z,99032.34
2022-12-24T12:46:40.502Z,99052.78
2022-12-24T12:50:18.245Z,99047.87
2022-12-24T12:53:35.741Z,99056.91
2022-12-24T12:56:39.779Z,99060.59
2022-12-24T12:59:52.052Z,99071.28
2022-12-24T13:03:31.026Z,99059.16
2022-12-24T13:06:51.513Z,99067.78
2022-12-24T13:09:59.400Z,99070.03
2022-12-24T13:13:07.456Z,99075.56
2022-12-24T13:16:09.686Z,99068.22
2022-12-24T13:19:37.620Z,99081.69
2022-12-24T13:22:40.365Z,99079.00
2022-12-24T13:25:50.735Z,99082.69
2022-12-24T13:28:52.912Z,99082.25
2022-12-24T13:32:20.668Z,99091.91
2022-12-24T13:35:22.727Z,99097.59
2022-12-24T13:38:27.980Z,99087.56
2022-12-24T13:41:40.214Z,99090.06
2022-12-24T13:44:43.450Z,99094.16
2022-12-24T13:47:45.742Z,99106.22
2022-12-24T13:51:15.411Z,99099.66
2022-12-24T13:54:20.873Z,99092.91
2022-12-24T13:57:44.685Z,99107.63
2022-12-24T14:01:17.450Z,99110.50
2022-12-24T14:04:31.624Z,99111.09
2022-12-24T14:07:33.941Z,99108.22
2022-12-24T14:10:40.227Z,99120.69
2022-12-24T14:13:42.357Z,99128.66
2022-12-24T14:16:51.590Z,99132.75
2022-12-24T14:19:59.515Z,99143.38
2022-12-24T14:23:01.750Z,99141.59
2022-12-24T14:26:06.329Z,99147.72
2022-12-24T14:29:24.418Z,99148.09
2022-12-24T14:32:40.759Z,99157.50
2022-12-24T14:35:43.275Z,99164.88
2022-12-24T14:38:45.583Z,99176.72
2022-12-24T14:42:00.182Z,99186.50
2022-12-24T14:45:21.080Z,99187.34
2022-12-24T14:48:35.468Z,99204.91
2022-12-24T14:51:40.790Z,99209.41
2022-12-24T14:54:43.820Z,99206.56
2022-12-24T14:57:48.083Z,99209.16
2022-12-24T15:00:51.215Z,99213.25
2022-12-24T15:04:05.956Z,99213.88
2022-12-24T15:07:12.044Z,99210.81
2022-12-24T15:10:43.025Z,99220.41
2022-12-24T15:13:51.129Z,99226.91
2022-12-24T15:16:59.425Z,99225.63
2022-12-24T15:20:04.129Z,99229.09
2022-12-24T15:23:06.395Z,99232.31
2022-12-24T15:26:12.164Z,99229.28
2022-12-24T15:29:21.405Z,99233.53
2022-12-24T15:32:23.716Z,99241.50
2022-12-24T15:35:44.370Z,99230.50
2022-12-24T15:38:50.474Z,99236.59
2022-12-24T15:42:11.615Z,99241.69
2022-12-24T15:45:28.128Z,99247.34
2022-12-24T15:48:31.777Z,99244.25
2022-12-24T15:51:36.949Z,99245.91
2022-12-24T15:54:52.090Z,99246.94
2022-12-24T15:57:58.104Z,99258.19
2022-12-24T16:01:30.395Z,99253.78
2022-12-24T16:04:32.736Z,99259.25
2022-12-24T16:07:54.870Z,99264.94
2022-12-24T16:11:06.026Z,99261.44
2022-12-24T16:14:17.094Z,99264.75
2022-12-24T16:17:37.838Z,99260.63
2022-12-24T16:20:46.954Z,99255.41
2022-12-24T16:23:52.611Z,99259.16
2022-12-24T16:26:55.261Z,99264.63
2022-12-24T16:29:57.757Z,99276.44
2022-12-24T16:32:59.985Z,99266.81
2022-12-24T16:36:02.205Z,99270.16
2022-12-24T16:39:23.494Z,99271.84
2022-12-24T16:42:44.292Z,99273.84
2022-12-24T16:45:46.890Z,99273.44
2022-12-24T16:48:49.128Z,99277.91
2022-12-24T16:51:51.433Z,99278.25
2022-12-24T16:54:53.748Z,99288.06
2022-12-24T16:57:56.709Z,99278.81
2022-12-24T17:00:59.853Z,99299.16
2022-12-24T17:04:02.098Z,99298.78
2022-12-24T17:07:04.279Z,99303.00
2022-12-24T17:10:09.896Z,99299.78
2022-12-24T17:13:12.090Z,99296.19
2022-12-24T17:16:14.371Z,99310.25
2022-12-24T17:19:18.007Z,99316.75
2022-12-24T17:22:20.198Z,99318.94
2022-12-24T17:25:22.482Z,99317.69
2022-12-24T17:28:25.112Z,99325.28
2022-12-24T17:31:27.364Z,99323.81
2022-12-24T17:34:29.622Z,99326.38
2022-12-24T17:37:32.124Z,99323.16
2022-12-24T17:40:34.365Z,99337.44
2022-12-24T17:43:37.163Z,99342.09
2022-12-24T17:46:39.629Z,99348.13
2022-12-24T17:49:41.891Z,99353.91
2022-12-24T17:52:44.216Z,99361.81
2022-12-24T17:55:46.938Z,99352.16
2022-12-24T17:58:49.123Z,99361.47
2022-12-24T18:01:51.501Z,99364.00
2022-12-24T18:04:53.952Z,99371.28
2022-12-24T18:07:56.169Z,99372.94
2022-12-24T18:10:58.620Z,99372.75
2022-12-24T18:14:02.102Z,99381.31
2022-12-24T18:17:04.806Z,99374.03
2022-12-24T18:20:07.735Z,99386.34
2022-12-24T18:23:09.912Z,99382.75
2022-12-24T18:26:13.202Z,99382.59
2022-12-24T18:29:16.284Z,99388.34
2022-12-24T18:32:18.468Z,99380.66
2022-12-24T18:35:22.561Z,99383.94
2022-12-24T18:38:25.581Z,99378.78
2022-12-24T18:41:29.903Z,99383.06
2022-12-24T18:44:32.085Z,99377.94
2022-12-24T18:47:34.242Z,99385.59
2022-12-24T18:50:37.368Z,99382.91
2022-12-24T18:53:42.689Z,99379.31
2022-12-24T18:56:44.917Z,99380.12
2022-12-24T18:59:47.087Z,99388.16
2022-12-24T19:02:49.897Z,99396.59
2022-12-24T19:05:52.190Z,99407.81
2022-12-24T19:08:58.250Z,99415.53
2022-12-24T19:12:01.673Z,99419.88
2022-12-24T19:15:05.024Z,99427.38
2022-12-24T19:18:07.181Z,99430.44
2022-12-24T19:21:11.785Z,99432.31
2022-12-24T19:24:14.468Z,99436.72
2022-12-24T19:27:16.647Z,99446.44
2022-12-24T19:30:18.842Z,99452.41
2022-12-24T19:33:21.038Z,99445.50
2022-12-24T19:36:28.560Z,99442.31
2022-12-24T19:39:33.312Z,99458.75
2022-12-24T19:42:35.523Z,99459.69
2022-12-24T19:45:37.792Z,99452.75
2022-12-24T19:48:40.424Z,99465.28
2022-12-24T19:51:42.585Z,99457.12
2022-12-24T19:54:44.873Z,99452.75
2022-12-24T19:57:47.039Z,99459.59
2022-12-24T20:00:49.319Z,99456.56
2022-12-24T20:03:52.866Z,99467.16
2022-12-24T20:07:00.141Z,99458.66
2022-12-24T20:10:03.217Z,99465.22
2022-12-24T20:13:06.227Z,99467.13
2022-12-24T20:16:12.082Z,99469.06
2022-12-24T20:19:15.067Z,99473.53
2022-12-24T20:22:17.265Z,99467.03
2022-12-24T20:25:19.426Z,99485.50
2022-12-24T20:28:21.612Z,99484.31
2022-12-24T20:31:26.924Z,99489.13
2022-12-24T20:34:29.179Z,99498.56
2022-12-24T20:37:33.494Z,99495.25
2022-12-24T20:40:35.743Z,99497.25
2022-12-24T20:43:45.085Z,99489.69
2022-12-24T20:46:49.763Z,99483.34
2022-12-24T20:49:51.933Z,99487.06
2022-12-24T20:52:54.546Z,99485.88
2022-12-24T20:55:56.786Z,99492.94
2022-12-24T20:59:00.184Z,99489.91
2022-12-24T21:02:02.489Z,99496.56
2022-12-24T21:05:05.316Z,99498.75
2022-12-24T21:08:08.173Z,99495.66
2022-12-24T21:11:28.798Z,99503.47
2022-12-24T21:14:30.990Z,99507.22
2022-12-24T21:17:33.139Z,99507.28
2022-12-24T21:20:36.025Z,99501.81
2022-12-24T21:23:38.271Z,99507.94
2022-12-24T21:26:40.494Z,99500.38
2022-12-24T21:29:42.720Z,99502.47
2022-12-24T21:32:45.182Z,99513.78
2022-12-24T21:35:47.467Z,99525.62
2022-12-24T21:38:49.665Z,99516.94
2022-12-24T21:41:51.819Z,99518.94
2022-12-24T21:44:54.039Z,99521.13
2022-12-24T21:47:56.241Z,99523.97
2022-12-24T21:50:58.534Z,99524.78
2022-12-24T21:54:19.413Z,99536.22
2022-12-24T21:57:40.639Z,99543.69
2022-12-24T22:00:42.807Z,99546.16
2022-12-24T22:03:48.396Z,99551.25
2022-12-24T22:07:10.628Z,99556.69
2022-12-24T22:10:32.468Z,99554.75
2022-12-24T22:13:34.676Z,99551.41
2022-12-24T22:16:36.896Z,99556.22
2022-12-24T22:19:39.399Z,99562.47
2022-12-24T22:22:41.622Z,99557.06
2022-12-24T22:25:44.202Z,99561.50
2022-12-24T22:28:46.451Z,99547.03
2022-12-24T22:31:48.644Z,99544.97
2022-12-24T22:34:50.940Z,99555.50
2022-12-24T22:37:59.426Z,99566.91
2022-12-24T22:41:08.103Z,99572.03
2022-12-24T22:44:10.760Z,99576.31
2022-12-24T22:47:12.932Z,99566.31
2022-12-24T22:50:15.165Z,99570.06
2022-12-24T22:53:17.778Z,99573.25
2022-12-24T22:56:22.307Z,99571.72
2022-12-24T22:59:24.628Z,99567.00
2022-12-24T23:02:28.723Z,99573.13
2022-12-24T23:05:31.282Z,99565.72
2022-12-24T23:08:35.550Z,99572.81
2022-12-24T23:11:39.215Z,99575.63
2022-12-24T23:14:56.585Z,99575.03
2022-12-24T23:17:58.800Z,99572.00
2022-12-24T23:21:05.141Z,99573.38
2022-12-24T23:24:08.737Z,99576.66
2022-12-24T23:27:11.064Z,99583.38
2022-12-24T23:30:15.708Z,99581.97
2022-12-24T23:33:17.895Z,99581.75
2022-12-24T23:36:20.257Z,99592.22
2022-12-24T23:39:22.508Z,99581.94
2022-12-24T23:42:24.739Z,99566.03
2022-12-24T23:45:26.919Z,99571.56
2022-12-24T23:48:29.414Z,99581.94
2022-12-24T23:51:31.591Z,99576.22
2022-12-24T23:54:33.797Z,99580.91
2022-12-24T23:57:36.022Z,99590.63
